Time;durP1;ratioP1;P1;durP2;ratioP2;P2;SDS_P1;SDS_P2;PMS_P1;PMS_P2;Temp;Humidity;BMP_temperature;BMP_pressure;BME280_temperature;BME280_humidity;BME280_pressure;Samples;Min_cycle;Max_cycle;Signal;HPM_P1;HPM_P2
2024/04/03 00:00:11;;;;;;;;;;;8.20;98.20;;;;;;5070513;28;20484;-57
2024/04/03 00:02:37;;;;;;;12.73;2.88;;;8.20;98.40;;;;;;5070893;28;19924;-60
2024/04/03 00:05:03;;;;;;;;;;;8.20;98.20;;;;;;5054256;28;20048;-56
2024/04/03 00:07:28;;;;;;;10.48;2.78;;;8.20;97.70;;;;;;5054371;28;19949;-57
2024/04/03 00:09:54;;;;;;;13.45;2.92;;;8.20;97.20;;;;;;5053318;28;20503;-60
2024/04/03 00:12:20;;;;;;;9.77;2.88;;;8.20;97.10;;;;;;5070086;28;20063;-57
2024/04/03 00:14:45;;;;;;;;;;;8.30;97.80;;;;;;5072029;28;20416;-57
2024/04/03 00:17:11;;;;;;;13.80;2.97;;;8.30;98.10;;;;;;5070162;28;19924;-56
2024/04/03 00:19:36;;;;;;;;;;;8.30;97.80;;;;;;5069603;28;20571;-57
2024/04/03 00:22:02;;;;;;;11.77;2.80;;;8.30;97.90;;;;;;5069801;28;19916;-57
2024/04/03 00:24:33;;;;;;;;;;;8.30;97.90;;;;;;5071085;28;20180;-58
2024/04/03 00:26:59;;;;;;;14.70;3.15;;;8.40;98.40;;;;;;5052517;28;19924;-56
2024/04/03 00:29:24;;;;;;;10.85;3.55;;;8.40;98.90;;;;;;5070513;28;20293;-58
2024/04/03 00:31:50;;;;;;;13.93;3.30;;;8.40;98.80;;;;;;5069566;28;20135;-56
2024/04/03 00:34:16;;;;;;;16.27;3.95;;;8.40;99.20;;;;;;5069301;28;20044;-58
2024/04/03 00:36:41;;;;;;;11.07;3.47;;;8.40;99.50;;;;;;5052437;28;20054;-58
2024/04/03 00:39:07;;;;;;;15.00;3.53;;;8.80;99.90;;;;;;5070256;28;20049;-57
2024/04/03 00:41:32;;;;;;;17.92;3.80;;;8.40;99.20;;;;;;5068605;28;20395;-57
2024/04/03 00:43:58;;;;;;;;;;;8.50;98.90;;;;;;5069557;28;20057;-56
2024/04/03 00:46:23;;;;;;;16.88;3.90;;;8.50;99.30;;;;;;5068719;28;20013;-57
2024/04/03 00:48:49;;;;;;;;;;;8.50;97.50;;;;;;5069560;28;20046;-57
2024/04/03 00:51:15;;;;;;;16.05;4.03;;;10.20;99.60;;;;;;5068790;28;19921;-57
2024/04/03 00:53:42;;;;;;;18.92;3.75;;;8.50;99.50;;;;;;5052016;28;20059;-58
2024/04/03 00:56:07;;;;;;;14.68;3.50;;;8.10;97.40;;;;;;5067177;28;20052;-59
2024/04/03 00:58:36;;;;;;;25.05;3.83;;;8.60;98.20;;;;;;5068389;28;20378;-57
2024/04/03 01:01:02;;;;;;;19.00;4.45;;;8.60;98.30;;;;;;5068814;28;20078;-57
2024/04/03 01:03:27;;;;;;;14.40;3.28;;;8.60;99.00;;;;;;5070084;28;20049;-60
2024/04/03 01:06:03;;;;;;;21.25;3.47;;;8.80;98.80;;;;;;5069207;28;20121;-56
2024/04/03 01:08:29;;;;;;;18.73;3.85;;;8.70;98.90;;;;;;5070134;28;20045;-56
2024/04/03 01:10:59;;;;;;;19.38;3.50;;;8.70;97.00;;;;;;5051280;28;20102;-58
2024/04/03 01:13:26;;;;;;;18.17;3.50;;;9.80;99.90;;;;;;5068763;28;20515;-57
2024/04/03 01:16:00;;;;;;;15.10;3.80;;;8.70;97.90;;;;;;5068386;28;20044;-57
2024/04/03 01:18:28;;;;;;;17.35;3.47;;;8.60;98.40;;;;;;5047545;28;20291;-58
2024/04/03 01:20:54;;;;;;;15.95;3.03;;;9.00;99.00;;;;;;5069775;28;20068;-58
2024/04/03 01:23:22;;;;;;;17.38;3.20;;;8.60;98.40;;;;;;5068593;28;20592;-56
2024/04/03 01:25:48;;;;;;;21.70;3.28;;;8.60;99.30;;;;;;5067966;28;20120;-58
2024/04/03 01:28:14;;;;;;;18.80;3.65;;;8.60;99.20;;;;;;5068828;28;20223;-60
2024/04/03 01:30:39;;;;;;;19.55;3.97;;;8.60;98.90;;;;;;5069675;28;20484;-59
2024/04/03 01:33:20;;;;;;;;;;;8.60;98.20;;;;;;5070934;28;20036;-57
2024/04/03 01:35:45;;;;;;;17.80;3.22;;;8.60;98.80;;;;;;5052003;28;19985;-59
2024/04/03 01:38:11;;;;;;;17.55;3.30;;;8.60;99.30;;;;;;5048329;28;20484;-57
2024/04/03 01:40:36;;;;;;;17.98;3.42;;;8.60;99.60;;;;;;5068538;28;20049;-57
2024/04/03 01:43:02;;;;;;;;;;;8.60;99.90;;;;;;5052391;28;20086;-56
2024/04/03 01:45:34;;;;;;;11.93;3.58;;;8.60;99.90;;;;;;5070155;28;20022;-57
2024/04/03 01:47:59;;;;;;;16.85;3.70;;;8.60;99.90;;;;;;5070092;28;20186;-58
2024/04/03 01:50:39;;;;;;;17.50;3.03;;;8.60;99.80;;;;;;5066985;28;20536;-58
2024/04/03 01:53:05;;;;;;;16.10;3.42;;;8.60;99.90;;;;;;5051396;28;20055;-58
2024/04/03 01:55:31;;;;;;;15.93;3.10;;;8.80;99.90;;;;;;5067810;28;20377;-58
2024/04/03 01:57:56;;;;;;;12.48;3.17;;;8.60;99.90;;;;;;5050835;28;20450;-58
2024/04/03 02:00:22;;;;;;;20.08;3.40;;;8.60;99.90;;;;;;5068443;28;20056;-56
2024/04/03 02:02:48;;;;;;;14.48;2.95;;;8.60;99.90;;;;;;5069488;28;20518;-58
2024/04/03 02:05:13;;;;;;;;;;;8.60;99.90;;;;;;5068697;28;20105;-59
2024/04/03 02:07:39;;;;;;;19.75;3.50;;;8.60;99.90;;;;;;5066800;28;19920;-56
2024/04/03 02:10:05;;;;;;;13.48;2.97;;;8.60;99.90;;;;;;5050459;28;20392;-57
2024/04/03 02:12:31;;;;;;;11.68;2.95;;;8.70;99.80;;;;;;5051587;28;20484;-56
2024/04/03 02:14:56;;;;;;;11.30;2.80;;;8.60;99.90;;;;;;5050705;28;20049;-57
2024/04/03 02:17:22;;;;;;;12.75;3.65;;;8.70;99.40;;;;;;5068065;28;20044;-56
2024/04/03 02:19:47;;;;;;;14.32;2.97;;;8.80;98.50;;;;;;5067577;28;20095;-60
2024/04/03 02:22:14;;;;;;;11.82;2.63;;;8.70;99.00;;;;;;5068060;28;20122;-57
2024/04/03 02:24:40;;;;;;;14.55;3.33;;;8.70;97.90;;;;;;5068923;28;20051;-57
2024/04/03 02:27:05;;;;;;;15.80;2.92;;;8.80;97.50;;;;;;5065563;28;20045;-56
2024/04/03 02:29:31;;;;;;;15.52;2.75;;;8.70;98.80;;;;;;5066885;28;20123;-57
2024/04/03 02:31:57;;;;;;;;;;;8.70;99.30;;;;;;5068313;28;20048;-56
2024/04/03 02:34:22;;;;;;;12.05;3.00;;;8.70;99.80;;;;;;5067966;28;19916;-59
2024/04/03 02:36:48;;;;;;;;;;;8.70;99.90;;;;;;5069342;28;20040;-57
2024/04/03 02:39:13;;;;;;;10.00;2.88;;;8.70;99.80;;;;;;5067779;28;19920;-59
2024/04/03 02:41:39;;;;;;;;;;;8.70;99.80;;;;;;5069003;28;20036;-57
2024/04/03 02:44:05;;;;;;;13.75;2.92;;;8.80;99.60;;;;;;5069683;28;20387;-57
2024/04/03 02:46:34;;;;;;;15.55;3.45;;;8.80;99.90;;;;;;5071530;28;20083;-61
2024/04/03 02:49:00;;;;;;;11.35;2.85;;;9.60;99.50;;;;;;5072737;28;20538;-56
2024/04/03 02:51:25;;;;;;;14.05;3.05;;;8.60;99.60;;;;;;5072775;28;20040;-60
2024/04/03 02:53:51;;;;;;;14.30;3.05;;;8.60;98.90;;;;;;5070968;28;20048;-57
2024/04/03 02:56:17;;;;;;;12.68;3.00;;;8.60;99.80;;;;;;5069660;28;20138;-56
2024/04/03 02:58:42;;;;;;;6.78;2.45;;;8.60;99.70;;;;;;5071478;28;20052;-57
2024/04/03 03:01:09;;;;;;;;;;;8.60;99.90;;;;;;5072813;28;20079;-58
2024/04/03 03:03:36;;;;;;;11.10;2.95;;;8.60;99.00;;;;;;5071163;28;19924;-57
2024/04/03 03:06:04;;;;;;;13.50;3.17;;;8.60;98.30;;;;;;5072345;28;20431;-56
2024/04/03 03:08:30;;;;;;;11.82;3.20;;;8.60;99.90;;;;;;5071144;28;20052;-58
2024/04/03 03:10:57;;;;;;;9.90;2.83;;;8.60;99.90;;;;;;5070196;28;20037;-58
2024/04/03 03:13:26;;;;;;;12.45;3.20;;;8.90;99.70;;;;;;5071141;28;20071;-56
2024/04/03 03:15:59;;;;;;;11.80;2.90;;;8.60;99.80;;;;;;5072337;28;20040;-57
2024/04/03 03:18:30;;;;;;;9.70;3.28;;;8.60;99.90;;;;;;5071460;28;20053;-56
2024/04/03 03:20:56;;;;;;;15.05;3.45;;;8.60;99.90;;;;;;5071225;28;20049;-58
2024/04/03 03:23:22;;;;;;;11.13;3.03;;;8.60;99.90;;;;;;5072917;28;20044;-58
2024/04/03 03:25:51;;;;;;;9.75;3.08;;;8.60;99.90;;;;;;5070987;28;20170;-57
2024/04/03 03:28:17;;;;;;;12.50;3.53;;;8.60;99.90;;;;;;5057638;28;20091;-56
2024/04/03 03:30:47;;;;;;;14.10;3.78;;;8.60;99.90;;;;;;5071306;28;20052;-59
2024/04/03 03:33:12;;;;;;;12.95;3.95;;;8.80;99.90;;;;;;5071117;28;20052;-57
2024/04/03 03:35:56;;;;;;;10.55;3.58;;;8.70;99.90;;;;;;5071428;28;20083;-57
2024/04/03 03:38:22;;;;;;;10.30;3.22;;;8.70;99.90;;;;;;5070680;28;20048;-57
2024/04/03 03:40:48;;;;;;;14.00;3.78;;;8.70;99.90;;;;;;5070495;28;20131;-57
2024/04/03 03:43:15;;;;;;;13.07;3.88;;;8.70;99.90;;;;;;5070818;28;20438;-56
2024/04/03 03:45:48;;;;;;;11.43;3.45;;;8.70;99.90;;;;;;5072219;28;20044;-58
2024/04/03 03:48:14;;;;;;;13.00;3.90;;;8.70;99.90;;;;;;5071182;28;20044;-59
2024/04/03 03:53:25;;;;;;;13.30;5.10;;;8.70;99.90;;;;;;5072080;28;20040;-57
2024/04/03 03:55:51;;;;;;;13.75;4.40;;;9.80;99.90;;;;;;5049504;28;20048;-56
2024/04/03 03:58:17;;;;;;;13.32;4.13;;;8.60;99.90;;;;;;5069872;28;20416;-56
2024/04/03 04:00:43;;;;;;;15.38;4.32;;;8.70;99.90;;;;;;5070337;28;20051;-55
2024/04/03 04:03:09;;;;;;;12.00;4.13;;;8.70;99.90;;;;;;5070849;28;20044;-56
2024/04/03 04:05:35;;;;;;;14.38;4.43;;;8.60;99.90;;;;;;5070445;28;20044;-57
2024/04/03 04:08:02;;;;;;;11.88;4.30;;;8.60;99.90;;;;;;5070437;28;20040;-57
2024/04/03 04:10:27;;;;;;;14.30;3.85;;;8.80;99.90;;;;;;5069904;28;20255;-59
2024/04/03 04:12:54;;;;;;;9.85;3.28;;;8.60;99.90;;;;;;5070794;28;20532;-57
2024/04/03 04:15:20;;;;;;;14.50;4.07;;;9.20;99.90;;;;;;5069731;28;20112;-56
2024/04/03 04:17:46;;;;;;;12.43;4.22;;;9.00;99.90;;;;;;5070266;28;20059;-56
2024/04/03 04:20:12;;;;;;;;;;;8.60;99.90;;;;;;5070963;28;20567;-57
2024/04/03 04:22:37;;;;;;;13.85;4.10;;;8.90;99.90;;;;;;5070103;28;19928;-60
2024/04/03 04:25:04;;;;;;;13.75;3.97;;;8.90;99.90;;;;;;5069394;28;20048;-56
2024/04/03 04:27:30;;;;;;;10.10;4.28;;;9.10;99.90;;;;;;5068678;28;20045;-57
2024/04/03 04:29:56;;;;;;;10.50;3.70;;;8.60;99.90;;;;;;5069531;28;20055;-56
2024/04/03 04:32:22;;;;;;;13.43;3.65;;;8.50;99.90;;;;;;5070215;28;20119;-56
2024/04/03 04:34:47;;;;;;;;;;;8.60;99.90;;;;;;5053587;28;20419;-58
2024/04/03 04:37:13;;;;;;;17.63;4.28;;;8.60;99.90;;;;;;5069945;28;19963;-56
2024/04/03 04:39:38;;;;;;;;;;;8.60;99.90;;;;;;5071153;28;20075;-59
2024/04/03 04:42:04;;;;;;;16.42;4.00;;;8.60;99.90;;;;;;5069432;28;19924;-56
2024/04/03 04:44:30;;;;;;;;;;;8.60;99.90;;;;;;5071341;28;20076;-56
2024/04/03 04:46:56;;;;;;;16.67;4.07;;;8.60;99.90;;;;;;5071019;28;19999;-57
2024/04/03 04:49:23;;;;;;;13.13;4.45;;;8.60;99.90;;;;;;5071222;28;20071;-57
2024/04/03 04:51:49;;;;;;;12.43;4.70;;;8.60;99.90;;;;;;5069657;28;20520;-57
2024/04/03 04:54:16;;;;;;;17.33;4.78;;;8.60;99.90;;;;;;5052947;28;20095;-56
2024/04/03 04:56:45;;;;;;;13.10;4.50;;;8.60;99.90;;;;;;5067487;28;20052;-56
2024/04/03 04:59:14;;;;;;;13.18;4.55;;;8.60;99.90;;;;;;5069375;28;20173;-56
2024/04/03 05:01:41;;;;;;;12.15;4.93;;;8.60;99.90;;;;;;5069738;28;20036;-56
2024/04/03 05:04:08;;;;;;;10.60;4.40;;;8.60;99.90;;;;;;5052508;28;20080;-58
2024/04/03 05:06:34;;;;;;;13.50;4.93;;;8.60;99.90;;;;;;5070071;28;20047;-56
2024/04/03 05:09:00;;;;;;;15.70;5.32;;;8.60;99.90;;;;;;5051923;28;20104;-57
2024/04/03 05:11:26;;;;;;;15.65;5.80;;;8.60;99.90;;;;;;5069479;28;20060;-58
2024/04/03 05:13:52;;;;;;;12.93;5.18;;;8.60;99.90;;;;;;5051296;28;20037;-60
2024/04/03 05:16:20;;;;;;;11.82;5.15;;;8.60;99.90;;;;;;5068254;28;20052;-61
2024/04/03 05:18:46;;;;;;;10.23;4.85;;;8.60;99.90;;;;;;5069024;28;20060;-57
2024/04/03 05:21:13;;;;;;;10.95;5.07;;;8.70;99.90;;;;;;5067798;28;20123;-60
2024/04/03 05:23:39;;;;;;;12.15;4.88;;;8.60;99.90;;;;;;5067286;28;20064;-58
2024/04/03 05:26:11;;;;;;;11.70;4.85;;;9.10;99.90;;;;;;5043822;28;20045;-57
2024/04/03 05:28:38;;;;;;;13.07;5.75;;;9.80;99.90;;;;;;5068617;28;20132;-60
2024/04/03 05:31:10;;;;;;;10.65;5.10;;;8.60;99.90;;;;;;5067314;28;20093;-60
2024/04/03 05:33:37;;;;;;;12.82;5.75;;;8.60;99.90;;;;;;5067435;28;20048;-57
2024/04/03 05:36:05;;;;;;;13.45;5.70;;;8.60;99.90;;;;;;5066510;28;20140;-58
2024/04/03 05:38:31;;;;;;;11.15;4.90;;;8.60;99.90;;;;;;5063004;28;20094;-58
2024/04/03 05:40:57;;;;;;;12.35;5.20;;;8.60;99.90;;;;;;5067599;28;20135;-59
2024/04/03 05:43:23;;;;;;;10.15;5.15;;;8.80;99.90;;;;;;5067796;28;20047;-59
2024/04/03 05:45:53;;;;;;;10.77;5.03;;;8.60;99.90;;;;;;5033352;28;20405;-60
2024/04/03 05:48:22;;;;;;;13.10;4.80;;;8.60;99.90;;;;;;5066044;28;20047;-59
2024/04/03 05:50:58;;;;;;;11.10;4.80;;;8.60;99.90;;;;;;5067894;28;20063;-60
2024/04/03 05:53:24;;;;;;;13.15;5.55;;;8.60;99.90;;;;;;5068245;28;20041;-59
2024/04/03 05:56:03;;;;;;;12.95;5.57;;;8.70;99.90;;;;;;5067204;28;20071;-58
2024/04/03 05:58:29;;;;;;;11.27;5.18;;;8.70;99.90;;;;;;5066843;28;20418;-60
2024/04/03 06:01:01;;;;;;;12.85;5.50;;;8.70;99.90;;;;;;5060187;28;20587;-59
2024/04/03 06:03:27;;;;;;;13.00;5.28;;;8.70;99.90;;;;;;5069335;28;20380;-59
2024/04/03 06:05:57;;;;;;;10.95;5.35;;;8.70;99.90;;;;;;5067681;28;20044;-59
2024/04/03 06:08:23;;;;;;;14.10;5.78;;;10.10;99.90;;;;;;5069590;28;20045;-58
2024/04/03 06:10:50;;;;;;;11.70;5.72;;;8.70;99.90;;;;;;5067071;28;20040;-59
2024/04/03 06:13:16;;;;;;;12.80;5.85;;;8.80;99.90;;;;;;5067322;28;20049;-60
2024/04/03 06:15:42;;;;;;;14.50;6.10;;;8.80;99.90;;;;;;5068145;28;20073;-58
2024/04/03 06:18:07;;;;;;;13.63;5.75;;;8.80;99.90;;;;;;5068358;28;20092;-59
2024/04/03 06:20:33;;;;;;;;;;;8.80;99.90;;;;;;5072543;28;20040;-59
2024/04/03 06:22:59;;;;;;;14.48;6.03;;;9.30;99.90;;;;;;5055342;28;19995;-61
2024/04/03 06:25:25;;;;;;;10.45;5.57;;;8.80;99.90;;;;;;5072764;28;20039;-60
2024/04/03 06:27:52;;;;;;;10.63;5.75;;;9.10;99.90;;;;;;5064650;28;20057;-58
2024/04/03 06:30:18;;;;;;;12.25;5.70;;;9.00;99.90;;;;;;5072227;28;20076;-60
2024/04/03 06:32:44;;;;;;;12.90;5.95;;;8.90;99.90;;;;;;5070558;28;20551;-60
2024/04/03 06:35:10;;;;;;;11.35;5.50;;;8.90;99.90;;;;;;5066664;28;20101;-58
2024/04/03 06:37:35;;;;;;;12.55;5.72;;;8.90;99.90;;;;;;5073868;28;20471;-59
2024/04/03 06:40:02;;;;;;;12.55;5.50;;;9.00;99.90;;;;;;5065428;28;20116;-60
2024/04/03 06:42:28;;;;;;;11.70;5.18;;;7.70;99.90;;;;;;5072549;28;20044;-60
2024/04/03 06:44:54;;;;;;;14.88;5.85;;;9.00;99.90;;;;;;5070781;28;20046;-62
2024/04/03 06:47:19;;;;;;;9.32;4.85;;;9.10;99.90;;;;;;5041226;28;20081;-60
2024/04/03 06:49:45;;;;;;;10.10;5.22;;;9.80;99.90;;;;;;5057820;28;20084;-60
2024/04/03 06:52:11;;;;;;;;;;;9.10;99.90;;;;;;5041557;28;20590;-60
2024/04/03 06:54:36;;;;;;;10.48;5.35;;;9.40;99.90;;;;;;5058797;28;19967;-59
2024/04/03 06:57:05;;;;;;;;;;;9.10;99.90;;;;;;5071946;28;20053;-60
2024/04/03 06:59:31;;;;;;;11.32;5.07;;;9.20;99.90;;;;;;5071471;28;19927;-59
2024/04/03 07:01:57;;;;;;;11.80;5.97;;;9.20;99.90;;;;;;5067831;28;20052;-61
2024/04/03 07:04:23;;;;;;;13.30;5.55;;;9.60;99.90;;;;;;5051975;28;20451;-59
2024/04/03 07:06:49;;;;;;;12.23;5.45;;;9.40;99.90;;;;;;5068189;28;20450;-59
2024/04/03 07:09:14;;;;;;;13.43;5.03;;;9.40;99.90;;;;;;5067981;28;20060;-60
2024/04/03 07:11:40;;;;;;;9.90;5.28;;;9.40;99.90;;;;;;5067628;28;20101;-60
2024/04/03 07:14:05;;;;;;;;;;;9.70;99.90;;;;;;5066545;28;20048;-60
2024/04/03 07:16:31;;;;;;;10.65;5.30;;;9.50;99.90;;;;;;5069441;28;19920;-60
2024/04/03 07:18:57;;;;;;;;;;;9.50;99.90;;;;;;5068655;28;20062;-61
2024/04/03 07:21:23;;;;;;;12.90;5.78;;;9.80;99.90;;;;;;5055347;28;19931;-60
2024/04/03 07:23:49;;;;;;;10.43;5.10;;;9.60;99.90;;;;;;5067823;28;20057;-59
2024/04/03 07:26:19;;;;;;;10.85;5.03;;;9.60;99.90;;;;;;5067612;28;20095;-59
2024/04/03 07:28:44;;;;;;;10.65;5.57;;;9.60;99.90;;;;;;5067452;28;20126;-59
2024/04/03 07:31:10;;;;;;;12.88;5.72;;;9.60;99.90;;;;;;5067587;28;20090;-60
2024/04/03 07:33:36;;;;;;;;;;;9.70;99.90;;;;;;5070398;28;20041;-59
2024/04/03 07:36:01;;;;;;;11.77;5.28;;;9.80;99.90;;;;;;5070965;28;19939;-60
2024/04/03 07:38:27;;;;;;;11.25;4.90;;;9.80;99.90;;;;;;5072478;28;20044;-59
2024/04/03 07:40:54;;;;;;;9.88;4.70;;;9.80;99.90;;;;;;5070289;28;20040;-60
2024/04/03 07:43:20;;;;;;;14.25;5.63;;;9.90;99.90;;;;;;5069951;28;20075;-60
2024/04/03 07:45:46;;;;;;;12.18;5.45;;;9.50;99.90;;;;;;5070307;28;20037;-60
2024/04/03 07:48:12;;;;;;;12.23;5.80;;;10.00;99.90;;;;;;5070186;28;20048;-59
2024/04/03 07:50:39;;;;;;;10.52;5.13;;;10.10;99.90;;;;;;5072404;28;20087;-59
2024/04/03 07:53:05;;;;;;;10.05;4.80;;;10.20;99.90;;;;;;5072203;28;20036;-59
2024/04/03 07:55:35;;;;;;;10.82;5.35;;;10.10;99.90;;;;;;5069797;28;20564;-59
2024/04/03 07:58:01;;;;;;;10.77;5.07;;;10.20;99.90;;;;;;5069046;28;20399;-60
2024/04/03 08:00:27;;;;;;;12.95;4.80;;;10.20;99.90;;;;;;5070035;28;20049;-58
2024/04/03 08:02:52;;;;;;;9.27;4.60;;;10.20;99.90;;;;;;5070275;28;20047;-59
2024/04/03 08:05:18;;;;;;;8.02;4.30;;;10.20;99.90;;;;;;5072132;28;20052;-60
2024/04/03 08:07:44;;;;;;;9.15;4.63;;;10.30;99.90;;;;;;5070365;28;20084;-60
2024/04/03 08:10:10;;;;;;;9.30;4.90;;;10.30;99.90;;;;;;5071104;28;20385;-60
2024/04/03 08:12:38;;;;;;;10.63;4.30;;;10.40;99.90;;;;;;5068826;28;20591;-58
2024/04/03 08:15:04;;;;;;;10.60;4.97;;;10.40;99.90;;;;;;5064493;28;20373;-60
2024/04/03 08:17:29;;;;;;;7.72;4.25;;;10.30;99.90;;;;;;5039289;28;20087;-59
2024/04/03 08:19:56;;;;;;;8.30;4.70;;;10.40;99.90;;;;;;5071750;28;20464;-60
2024/04/03 08:22:22;;;;;;;9.38;4.18;;;10.40;99.90;;;;;;5070124;28;20123;-60
2024/04/03 08:24:49;;;;;;;8.23;3.75;;;10.40;99.90;;;;;;5070227;28;20127;-60
2024/04/03 08:27:15;;;;;;;6.57;3.92;;;10.50;99.90;;;;;;5069372;28;20556;-59
2024/04/03 08:29:43;;;;;;;7.47;3.55;;;10.50;99.90;;;;;;5069575;28;20124;-62
2024/04/03 08:32:21;;;;;;;8.25;4.10;;;10.50;99.90;;;;;;5071391;28;20052;-60
2024/04/03 08:34:51;;;;;;;10.85;3.80;;;10.50;99.90;;;;;;5069765;28;20052;-60
2024/04/03 08:37:19;;;;;;;8.40;4.35;;;10.60;99.90;;;;;;5070050;28;20052;-59
2024/04/03 08:39:45;;;;;;;9.68;4.07;;;10.60;99.90;;;;;;5070858;28;20518;-60
2024/04/03 08:42:12;;;;;;;8.60;4.35;;;10.50;99.90;;;;;;5068707;28;20123;-59
2024/04/03 08:44:38;;;;;;;8.90;4.15;;;10.70;99.90;;;;;;5070145;28;20059;-61
2024/04/03 08:47:04;;;;;;;6.97;3.95;;;10.70;99.90;;;;;;5069860;28;20045;-60
2024/04/03 08:49:32;;;;;;;7.78;4.07;;;10.70;99.90;;;;;;5071328;28;20067;-60
2024/04/03 08:52:01;;;;;;;8.43;4.07;;;10.70;99.90;;;;;;5069597;28;20056;-59
2024/04/03 08:54:28;;;;;;;7.97;4.10;;;10.80;99.90;;;;;;5062897;28;20033;-59
2024/04/03 08:56:54;;;;;;;7.47;3.97;;;10.80;99.90;;;;;;5067509;28;20057;-60
2024/04/03 08:59:20;;;;;;;6.95;3.85;;;10.70;99.90;;;;;;5068065;28;20067;-59
2024/04/03 09:01:50;;;;;;;9.30;3.80;;;10.70;99.90;;;;;;5070199;28;20052;-60
2024/04/03 09:04:17;;;;;;;8.20;3.92;;;10.80;99.90;;;;;;5040442;28;20044;-59
2024/04/03 09:06:47;;;;;;;7.03;3.53;;;10.60;99.90;;;;;;5068437;28;20041;-60
2024/04/03 09:09:23;;;;;;;6.78;4.15;;;10.70;99.90;;;;;;5069658;28;20121;-60
2024/04/03 09:11:51;;;;;;;6.80;3.60;;;10.70;99.90;;;;;;5068201;28;20043;-59
2024/04/03 09:14:35;;;;;;;8.07;3.95;;;10.70;99.90;;;;;;5068919;28;20047;-59
2024/04/03 09:17:02;;;;;;;9.05;4.70;;;10.80;99.90;;;;;;5068400;28;20438;-59
2024/04/03 09:19:29;;;;;;;10.30;4.10;;;10.90;99.90;;;;;;5068546;28;20421;-60
2024/04/03 09:21:57;;;;;;;7.68;3.78;;;11.30;99.90;;;;;;5068229;28;20204;-60
2024/04/03 09:24:22;;;;;;;8.77;4.03;;;11.70;99.90;;;;;;5068405;28;20067;-60
2024/04/03 09:27:02;;;;;;;9.60;3.47;;;11.10;99.90;;;;;;5067662;28;20044;-59
2024/04/03 09:29:29;;;;;;;8.32;3.63;;;11.10;99.90;;;;;;5068206;28;20052;-60
2024/04/03 09:32:02;;;;;;;8.93;3.92;;;11.20;99.90;;;;;;5061630;28;20652;-59
2024/04/03 09:34:29;;;;;;;8.02;3.65;;;11.20;99.90;;;;;;5068287;28;20059;-60
2024/04/03 09:36:56;;;;;;;8.63;3.58;;;11.30;99.90;;;;;;5068473;28;20075;-60
2024/04/03 09:39:23;;;;;;;7.97;3.75;;;11.30;99.90;;;;;;5069847;28;20041;-61
2024/04/03 09:41:50;;;;;;;7.38;3.97;;;11.30;99.90;;;;;;5038273;28;20049;-60
2024/04/03 09:44:19;;;;;;;10.20;3.72;;;11.50;99.90;;;;;;5063187;28;20126;-59
2024/04/03 09:46:46;;;;;;;8.25;3.50;;;11.50;99.90;;;;;;5068424;28;20484;-60
2024/04/03 09:49:14;;;;;;;7.55;3.60;;;11.10;99.90;;;;;;5034221;28;20045;-60
2024/04/03 09:51:40;;;;;;;7.22;3.72;;;11.50;99.90;;;;;;5065634;28;20044;-60
2024/04/03 09:54:09;;;;;;;7.10;3.22;;;12.00;99.90;;;;;;5069893;28;20055;-60
2024/04/03 09:56:37;;;;;;;7.53;3.20;;;11.80;99.90;;;;;;5067292;28;20094;-60
2024/04/03 09:59:02;;;;;;;6.85;3.75;;;11.60;99.90;;;;;;5069965;28;20056;-60
2024/04/03 10:01:30;;;;;;;6.97;3.47;;;11.60;99.90;;;;;;5068636;28;20044;-60
2024/04/03 10:04:08;;;;;;;5.95;3.13;;;11.60;99.90;;;;;;5051748;28;20040;-61
2024/04/03 10:06:38;;;;;;;7.07;3.53;;;11.70;99.90;;;;;;5068652;28;20049;-60
2024/04/03 10:09:21;;;;;;;7.40;3.38;;;11.70;99.90;;;;;;5069790;28;20080;-60
2024/04/03 10:11:51;;;;;;;5.20;3.08;;;11.80;99.90;;;;;;5068206;28;20102;-60
2024/04/03 10:14:26;;;;;;;7.72;3.55;;;12.10;99.90;;;;;;5065135;28;20495;-60
2024/04/03 10:16:53;;;;;;;6.03;3.50;;;12.00;99.90;;;;;;5068320;28;20076;-61
2024/04/03 10:19:20;;;;;;;4.80;3.05;;;12.10;99.90;;;;;;5068023;28;20052;-60
2024/04/03 10:21:46;;;;;;;7.25;3.30;;;12.20;99.90;;;;;;5069717;28;20045;-60
2024/04/03 10:24:12;;;;;;;6.30;3.38;;;12.30;99.90;;;;;;5056823;28;20052;-60
2024/04/03 10:26:38;;;;;;;6.97;3.10;;;12.50;99.90;;;;;;5058810;28;20048;-60
2024/04/03 10:29:09;;;;;;;5.18;3.13;;;12.80;99.60;;;;;;5069081;28;20045;-60
2024/04/03 10:31:34;;;;;;;5.22;3.33;;;13.70;99.00;;;;;;5048477;28;20045;-60
2024/04/03 10:34:01;;;;;;;5.82;2.72;;;12.50;98.80;;;;;;5062259;28;20052;-60
2024/04/03 10:36:27;;;;;;;7.28;3.10;;;12.20;99.20;;;;;;5068020;28;20044;-60
2024/04/03 10:38:52;;;;;;;5.00;3.15;;;12.10;98.60;;;;;;5069742;28;20120;-59
2024/04/03 10:41:18;;;;;;;8.18;3.40;;;12.50;99.90;;;;;;5068691;28;20044;-60
2024/04/03 10:43:43;;;;;;;7.47;3.25;;;12.40;99.90;;;;;;5067384;28;20092;-60
2024/04/03 10:46:13;;;;;;;9.00;3.13;;;12.50;98.80;;;;;;5067670;28;20044;-61
2024/04/03 10:48:40;;;;;;;7.28;3.17;;;12.70;98.90;;;;;;5067099;28;20044;-60
2024/04/03 10:51:07;;;;;;;6.10;3.00;;;13.00;98.80;;;;;;5068214;28;20075;-60
2024/04/03 10:53:36;;;;;;;5.85;2.80;;;12.50;97.20;;;;;;5060237;28;20044;-60
2024/04/03 10:56:02;;;;;;;7.03;2.90;;;12.40;96.50;;;;;;5066856;28;20480;-60
2024/04/03 10:58:29;;;;;;;6.88;2.80;;;12.40;96.70;;;;;;5049195;28;20266;-61
2024/04/03 11:00:55;;;;;;;6.88;2.72;;;12.50;97.10;;;;;;5068086;28;20411;-60
2024/04/03 11:03:22;;;;;;;5.13;2.92;;;12.30;99.10;;;;;;5068307;28;20480;-60
2024/04/03 11:05:50;;;;;;;5.22;2.88;;;12.30;97.70;;;;;;5071284;28;20040;-59
2024/04/03 11:08:16;;;;;;;5.18;2.80;;;12.30;98.20;;;;;;5060552;28;20048;-63
2024/04/03 11:10:41;;;;;;;5.85;2.70;;;12.20;98.80;;;;;;5067535;28;20167;-61
2024/04/03 11:13:15;;;;;;;4.78;2.58;;;12.20;98.50;;;;;;5071431;28;20123;-60
2024/04/03 11:15:40;;;;;;;5.30;2.90;;;12.30;99.50;;;;;;5071185;28;20090;-60
2024/04/03 11:18:06;;;;;;;6.63;2.97;;;12.40;98.30;;;;;;5042997;28;20040;-60
2024/04/03 11:20:36;;;;;;;5.10;2.47;;;12.50;98.60;;;;;;5071547;28;20133;-60
2024/04/03 11:23:05;;;;;;;5.03;2.70;;;12.60;99.20;;;;;;5070843;28;20048;-60
2024/04/03 11:25:32;;;;;;;4.82;2.70;;;12.60;97.60;;;;;;5068917;28;20385;-60
2024/04/03 11:28:03;;;;;;;5.82;2.83;;;12.60;97.20;;;;;;5069713;28;20060;-62
2024/04/03 11:30:30;;;;;;;5.38;2.75;;;12.50;97.00;;;;;;5067212;28;20089;-59
2024/04/03 11:32:55;;;;;;;6.40;2.92;;;12.40;94.70;;;;;;5063320;28;20041;-60
2024/04/03 11:35:22;;;;;;;7.65;3.00;;;12.60;94.60;;;;;;5071081;28;20124;-60
2024/04/03 11:37:47;;;;;;;6.30;3.10;;;12.30;95.00;;;;;;5068859;28;20053;-60
2024/04/03 11:40:22;;;;;;;6.13;3.10;;;12.30;95.90;;;;;;5068148;28;20444;-60
2024/04/03 11:42:48;;;;;;;5.63;2.67;;;12.70;96.20;;;;;;5059595;28;20060;-63
2024/04/03 11:45:13;;;;;;;5.05;2.88;;;12.20;96.30;;;;;;5057357;28;20481;-61
2024/04/03 11:47:39;;;;;;;5.00;2.90;;;12.10;95.80;;;;;;5067066;28;20064;-61
2024/04/03 11:50:05;;;;;;;8.55;3.10;;;12.10;96.30;;;;;;5056209;28;20056;-60
2024/04/03 11:52:32;;;;;;;6.93;2.90;;;12.00;96.40;;;;;;5064681;28;20080;-61
2024/04/03 11:54:57;;;;;;;6.15;3.50;;;13.20;99.30;;;;;;5068440;28;20049;-63
2024/04/03 11:57:23;;;;;;;7.00;3.40;;;12.10;98.30;;;;;;5056531;28;20062;-58
2024/04/03 11:59:50;;;;;;;5.65;3.20;;;12.20;99.00;;;;;;5068953;28;20044;-59
2024/04/03 12:02:15;;;;;;;7.18;3.60;;;12.40;98.70;;;;;;5069957;28;20095;-60
2024/04/03 12:04:42;;;;;;;8.68;3.88;;;12.70;99.20;;;;;;5069082;28;20618;-59
2024/04/03 12:07:13;;;;;;;7.00;3.35;;;13.00;98.80;;;;;;5056190;28;20043;-61
2024/04/03 12:09:45;;;;;;;5.97;3.60;;;13.70;98.30;;;;;;5067055;28;20048;-61
2024/04/03 12:12:10;;;;;;;6.35;3.35;;;13.30;94.90;;;;;;5067843;28;20496;-60
2024/04/03 12:14:36;;;;;;;7.15;3.42;;;13.30;92.60;;;;;;5063568;28;20040;-60
2024/04/03 12:17:05;;;;;;;8.55;3.55;;;13.20;93.50;;;;;;5069709;28;20399;-60
2024/04/03 12:22:05;;;;;;;6.20;3.42;;;13.00;92.30;;;;;;5068619;28;20044;-60
2024/04/03 12:24:32;;;;;;;8.65;2.85;;;12.80;92.40;;;;;;5061788;28;20075;-60
2024/04/03 12:26:58;;;;;;;5.53;3.20;;;13.30;94.00;;;;;;5061130;28;20040;-59
2024/04/03 12:29:23;;;;;;;5.82;3.08;;;12.70;94.20;;;;;;5065585;28;20533;-63
2024/04/03 12:31:51;;;;;;;5.78;2.60;;;12.50;94.50;;;;;;5067761;28;20041;-60
2024/04/03 12:34:17;;;;;;;5.55;3.05;;;12.50;95.00;;;;;;5056129;28;20127;-60
2024/04/03 12:36:43;;;;;;;6.57;3.42;;;12.50;95.60;;;;;;5068840;28;20135;-59
2024/04/03 12:39:11;;;;;;;6.65;3.42;;;12.50;95.80;;;;;;5068910;28;20063;-60
2024/04/03 12:41:37;;;;;;;7.03;3.17;;;12.50;95.40;;;;;;5069653;28;20050;-60
2024/04/03 12:44:03;;;;;;;5.95;3.10;;;12.90;96.80;;;;;;5068333;28;20090;-59
2024/04/03 12:46:29;;;;;;;5.50;3.15;;;12.50;95.60;;;;;;5069019;28;20049;-60
2024/04/03 12:48:55;;;;;;;5.47;3.35;;;12.50;94.10;;;;;;5060905;28;20076;-60
2024/04/03 12:51:20;;;;;;;6.47;3.42;;;12.50;94.10;;;;;;5055798;28;20079;-61
2024/04/03 12:53:46;;;;;;;5.75;3.30;;;12.50;94.70;;;;;;5061040;28;20194;-59
2024/04/03 12:56:12;;;;;;;5.75;3.15;;;12.50;94.70;;;;;;5065023;28;20041;-59